createdAt,value
2018-08-03T06:04:21.208Z,100.00
2018-08-03T06:06:49.760Z,100.00
2018-08-03T06:09:18.278Z,100.00
2018-08-03T06:11:46.780Z,100.00
2018-08-03T06:14:15.306Z,100.00
2018-08-03T06:16:43.832Z,100.00
2018-08-03T06:19:12.354Z,100.00
2018-08-03T06:21:40.853Z,100.00
2018-08-03T06:24:09.405Z,100.00
2018-08-03T06:26:37.978Z,100.00
2018-08-03T06:29:06.676Z,100.00
2018-08-03T06:31:35.353Z,100.00
2018-08-03T06:34:03.878Z,100.00
2018-08-03T06:36:32.424Z,100.00
2018-08-03T06:39:01.040Z,100.00
2018-08-03T06:41:29.559Z,100.00
2018-08-03T06:43:58.955Z,100.00
2018-08-03T06:46:27.436Z,100.00
2018-08-03T06:48:55.931Z,100.00
2018-08-03T06:51:25.008Z,100.00
2018-08-03T06:53:54.148Z,100.00
2018-08-03T06:56:22.705Z,100.00
2018-08-03T06:58:51.196Z,100.00
2018-08-03T07:01:19.695Z,100.00
2018-08-03T07:03:48.212Z,100.00
2018-08-03T07:06:16.684Z,100.00
2018-08-03T07:08:45.193Z,100.00
2018-08-03T07:11:13.699Z,100.00
2018-08-03T07:13:42.234Z,100.00
2018-08-03T07:16:10.796Z,100.00
2018-08-03T07:18:39.296Z,100.00
2018-08-03T07:21:07.800Z,100.00
2018-08-03T07:23:36.343Z,99.87
2018-08-03T07:26:04.834Z,96.90
2018-08-03T07:28:33.309Z,96.08
2018-08-03T07:31:01.864Z,94.92
2018-08-03T07:33:30.409Z,95.25
2018-08-03T07:35:59.155Z,94.24
2018-08-03T07:38:27.875Z,94.07
2018-08-03T07:40:56.737Z,93.64
2018-08-03T07:43:25.394Z,93.17
2018-08-03T07:45:53.903Z,93.12
2018-08-03T07:48:22.400Z,92.45
2018-08-03T07:50:50.936Z,92.77
2018-08-03T07:53:19.549Z,92.37
2018-08-03T07:55:48.057Z,91.66
2018-08-03T07:58:16.532Z,91.82
2018-08-03T08:00:45.017Z,92.31
2018-08-03T08:03:13.607Z,91.99
2018-08-03T08:05:42.061Z,92.70
2018-08-03T08:08:10.636Z,91.66
2018-08-03T08:10:39.260Z,91.80
2018-08-03T08:13:07.749Z,90.41
2018-08-03T08:15:36.330Z,90.20
2018-08-03T08:18:04.759Z,89.81
2018-08-03T08:20:33.311Z,89.32
2018-08-03T08:23:01.817Z,88.40
2018-08-03T08:25:30.368Z,88.80
2018-08-03T08:27:58.987Z,89.31
2018-08-03T08:30:27.511Z,89.77
2018-08-03T08:32:55.981Z,90.76
2018-08-03T08:35:24.460Z,90.64
2018-08-03T08:37:52.962Z,90.63
2018-08-03T08:40:21.472Z,90.88
2018-08-03T08:42:51.011Z,91.73
2018-08-03T08:45:19.535Z,92.58
2018-08-03T08:47:48.077Z,93.55
2018-08-03T08:50:16.564Z,93.43
2018-08-03T08:52:45.659Z,93.10
2018-08-03T08:55:14.158Z,92.32
2018-08-03T08:57:42.896Z,91.88
2018-08-03T09:00:17.271Z,92.02
2018-08-03T09:02:46.058Z,92.16
2018-08-03T09:05:14.677Z,92.35
2018-08-03T09:07:43.397Z,92.31
2018-08-03T09:10:12.033Z,91.54
2018-08-03T09:12:40.730Z,91.92
2018-08-03T09:15:09.376Z,91.98
2018-08-03T09:17:55.573Z,92.15
2018-08-03T09:20:24.024Z,91.70
2018-08-03T09:22:52.527Z,93.15
2018-08-03T09:25:20.976Z,93.30
2018-08-03T09:27:49.439Z,92.31
2018-08-03T09:30:17.892Z,92.39
2018-08-03T09:32:46.376Z,92.97
2018-08-03T09:35:15.123Z,93.65
2018-08-03T09:37:43.771Z,93.14
2018-08-03T09:40:12.633Z,93.36
2018-08-03T09:42:41.320Z,93.97
2018-08-03T09:45:10.108Z,96.73
2018-08-03T09:47:38.592Z,97.93
2018-08-03T09:50:07.043Z,96.48
2018-08-03T09:52:35.491Z,96.46
2018-08-03T09:55:03.976Z,96.51
2018-08-03T09:57:32.476Z,96.78
2018-08-03T10:00:00.929Z,95.78
2018-08-03T10:02:29.393Z,95.17
2018-08-03T10:04:57.868Z,94.10
2018-08-03T10:07:26.407Z,93.90
2018-08-03T10:09:54.844Z,94.29
2018-08-03T10:12:23.339Z,94.71
2018-08-03T10:14:51.792Z,95.46
2018-08-03T10:17:20.261Z,98.45
2018-08-03T10:19:48.724Z,97.69
2018-08-03T10:22:17.235Z,97.80
2018-08-03T10:24:45.703Z,99.59
2018-08-03T10:27:14.172Z,100.00
2018-08-03T10:29:42.676Z,100.00
2018-08-03T10:32:11.120Z,100.00
2018-08-03T10:34:39.680Z,100.00
2018-08-03T10:37:08.164Z,100.00
2018-08-03T10:39:36.659Z,100.00
2018-08-03T10:42:05.163Z,99.65
2018-08-03T10:44:33.676Z,99.49
2018-08-03T10:47:02.210Z,99.55
2018-08-03T10:49:30.737Z,98.17
2018-08-03T10:51:59.971Z,97.76
2018-08-03T10:54:28.935Z,95.82
2018-08-03T10:56:57.407Z,96.05
2018-08-03T10:59:25.975Z,96.06
2018-08-03T11:01:54.458Z,95.32
2018-08-03T11:04:22.957Z,96.01
2018-08-03T11:06:51.565Z,95.43
2018-08-03T11:09:20.000Z,94.50
2018-08-03T11:11:48.684Z,95.53
2018-08-03T11:14:17.216Z,95.41
2018-08-03T11:16:45.711Z,92.87
2018-08-03T11:19:14.255Z,91.87
2018-08-03T11:21:42.759Z,91.00
2018-08-03T11:24:11.302Z,90.98
2018-08-03T11:26:39.784Z,90.52
2018-08-03T11:29:08.300Z,90.38
2018-08-03T11:31:36.840Z,92.13
2018-08-03T11:34:05.331Z,91.73
2018-08-03T11:36:33.867Z,92.85
2018-08-03T11:39:02.348Z,92.91
2018-08-03T11:41:30.822Z,92.26
2018-08-03T11:43:59.352Z,91.83
2018-08-03T11:46:27.832Z,91.06
2018-08-03T11:48:56.305Z,90.97
2018-08-03T11:51:24.758Z,90.78
2018-08-03T11:53:53.297Z,89.27
2018-08-03T11:56:21.749Z,88.29
2018-08-03T11:58:50.215Z,89.26
2018-08-03T12:01:18.699Z,88.53
2018-08-03T12:03:47.164Z,89.47
2018-08-03T12:06:15.608Z,87.67
2018-08-03T12:08:44.108Z,86.18
2018-08-03T12:11:12.572Z,87.01
2018-08-03T12:13:41.071Z,90.38
2018-08-03T12:16:09.571Z,90.28
2018-08-03T12:18:38.081Z,90.89
2018-08-03T12:21:06.582Z,90.17
2018-08-03T12:23:35.150Z,90.94
2018-08-03T12:26:03.643Z,90.63
2018-08-03T12:28:32.112Z,90.84
2018-08-03T12:31:00.683Z,89.69
2018-08-03T12:33:29.155Z,87.34
2018-08-03T12:35:57.604Z,87.41
2018-08-03T12:38:26.044Z,88.52
2018-08-03T12:40:54.504Z,88.70
2018-08-03T12:43:23.018Z,88.27
2018-08-03T12:45:51.491Z,88.43
2018-08-03T12:48:20.405Z,87.43
2018-08-03T12:50:49.231Z,87.59
2018-08-03T12:53:17.836Z,87.46
2018-08-03T12:55:46.300Z,86.66
2018-08-03T12:58:14.751Z,87.31
2018-08-03T13:00:43.291Z,86.87
2018-08-03T13:03:11.784Z,87.89
2018-08-03T13:05:40.259Z,85.94
2018-08-03T13:08:09.170Z,86.32
2018-08-03T13:10:37.495Z,86.19
2018-08-03T13:13:05.980Z,85.69
2018-08-03T13:15:34.487Z,86.85
2018-08-03T13:18:03.096Z,85.68
2018-08-03T13:20:31.590Z,85.99
2018-08-03T13:23:01.889Z,86.24
2018-08-03T13:25:30.405Z,87.94
2018-08-03T13:27:58.881Z,87.17
2018-08-03T13:30:27.388Z,85.66
2018-08-03T13:32:56.461Z,79.26
2018-08-03T13:35:25.016Z,77.48
2018-08-03T13:37:53.603Z,76.34
2018-08-03T13:40:22.123Z,75.81
2018-08-03T13:42:50.652Z,76.58
2018-08-03T13:45:19.524Z,77.54
2018-08-03T13:47:48.300Z,79.13
2018-08-03T13:50:17.108Z,79.83
2018-08-03T13:52:46.489Z,79.36
2018-08-03T13:55:15.356Z,79.72
2018-08-03T13:57:43.922Z,79.53
2018-08-03T14:00:13.340Z,80.08
2018-08-03T14:02:42.260Z,79.69
2018-08-03T14:05:12.548Z,80.02
2018-08-03T14:07:41.029Z,80.15
2018-08-03T14:10:10.304Z,79.59
2018-08-03T14:12:38.803Z,79.45
2018-08-03T14:15:08.059Z,80.79
2018-08-03T14:17:36.675Z,81.23
2018-08-03T14:20:06.542Z,82.11
2018-08-03T14:22:35.072Z,81.90
2018-08-03T14:25:03.946Z,80.33
2018-08-03T14:27:32.534Z,81.28
2018-08-03T14:30:01.441Z,80.52
2018-08-03T14:32:30.249Z,80.05
2018-08-03T14:34:59.118Z,78.96
2018-08-03T14:37:27.860Z,78.96
2018-08-03T14:39:56.494Z,77.95
2018-08-03T14:42:24.991Z,76.87
2018-08-03T14:44:53.509Z,77.05
2018-08-03T14:47:21.969Z,75.16
2018-08-03T14:49:50.928Z,73.92
2018-08-03T14:52:19.421Z,73.60
2018-08-03T14:54:47.888Z,75.51
2018-08-03T14:57:16.598Z,69.46
2018-08-03T14:59:45.302Z,67.60
2018-08-03T15:02:13.968Z,67.62
2018-08-03T15:04:42.813Z,64.53
2018-08-03T15:07:11.542Z,64.65
2018-08-03T15:09:40.148Z,64.88
2018-08-03T15:12:08.784Z,65.26
2018-08-03T15:14:37.451Z,66.33
2018-08-03T15:17:06.307Z,67.42
2018-08-03T15:19:35.534Z,67.10
2018-08-03T15:22:04.000Z,68.61
2018-08-03T15:24:32.503Z,68.98
2018-08-03T15:27:00.968Z,68.28
2018-08-03T15:29:29.465Z,67.99
2018-08-03T15:31:57.973Z,66.63
2018-08-03T15:34:26.453Z,67.03
2018-08-03T15:36:54.933Z,67.66
2018-08-03T15:39:23.404Z,67.86
2018-08-03T15:41:51.859Z,67.51
2018-08-03T15:44:20.328Z,68.28
2018-08-03T15:46:48.820Z,69.40
2018-08-03T15:49:17.364Z,69.39
2018-08-03T15:51:45.848Z,71.19
2018-08-03T15:54:14.311Z,70.89
2018-08-03T15:56:42.778Z,71.05
2018-08-03T15:59:11.271Z,71.33
2018-08-03T16:01:39.732Z,71.42
2018-08-03T16:04:08.193Z,71.57
2018-08-03T16:06:36.712Z,71.59
2018-08-03T16:09:08.112Z,71.97
2018-08-03T16:11:36.599Z,71.98
2018-08-03T16:14:05.087Z,72.56
2018-08-03T16:16:33.573Z,72.87
2018-08-03T16:19:02.053Z,72.90
2018-08-03T16:21:30.564Z,72.99
2018-08-03T16:23:59.044Z,73.22
2018-08-03T16:26:27.524Z,73.79
2018-08-03T16:28:56.025Z,73.46
2018-08-03T16:31:24.484Z,73.34
2018-08-03T16:33:52.952Z,74.03
2018-08-03T16:36:21.424Z,73.96
2018-08-03T16:38:49.932Z,74.60
2018-08-03T16:41:18.400Z,75.13
2018-08-03T16:43:46.871Z,74.66
2018-08-03T16:46:15.368Z,75.18
2018-08-03T16:48:43.837Z,75.21
2018-08-03T16:51:12.297Z,75.27
2018-08-03T16:53:40.759Z,75.62
2018-08-03T16:56:09.248Z,75.90
2018-08-03T16:58:37.703Z,76.31
2018-08-03T17:01:06.175Z,76.48
2018-08-03T17:03:34.658Z,76.57
2018-08-03T17:06:03.151Z,76.34
2018-08-03T17:08:31.636Z,76.44
2018-08-03T17:11:00.139Z,75.89
2018-08-03T17:13:28.644Z,76.89
2018-08-03T17:15:57.107Z,76.63
2018-08-03T17:18:25.612Z,76.33
2018-08-03T17:20:54.107Z,76.65
2018-08-03T17:23:22.569Z,76.93
2018-08-03T17:25:51.055Z,76.79
2018-08-03T17:28:19.499Z,77.08
2018-08-03T17:30:47.963Z,76.26
2018-08-03T17:33:16.439Z,77.12
2018-08-03T17:35:44.887Z,76.57
2018-08-03T17:38:13.361Z,76.52
2018-08-03T17:40:41.825Z,77.02
2018-08-03T17:43:10.305Z,76.89
2018-08-03T17:45:38.796Z,77.17
2018-08-03T17:48:07.546Z,76.71
2018-08-03T17:50:36.035Z,76.41
2018-08-03T17:53:04.552Z,76.95
2018-08-03T17:55:33.079Z,77.43
2018-08-03T17:58:01.545Z,77.13
2018-08-03T18:00:30.039Z,77.30
2018-08-03T18:02:58.559Z,76.69
2018-08-03T18:05:27.033Z,76.75
2018-08-03T18:07:55.509Z,77.63
2018-08-03T18:10:24.001Z,77.79
2018-08-03T18:12:52.469Z,77.00
2018-08-03T18:15:20.935Z,76.87
2018-08-03T18:17:50.063Z,76.86
2018-08-03T18:20:18.539Z,77.21
2018-08-03T18:22:47.005Z,77.84
2018-08-03T18:25:15.491Z,77.00
2018-08-03T18:27:43.961Z,77.76
2018-08-03T18:30:12.586Z,78.31
2018-08-03T18:32:41.067Z,77.81
2018-08-03T18:35:09.536Z,77.81
2018-08-03T18:37:38.266Z,77.14
2018-08-03T18:40:08.889Z,77.28
2018-08-03T18:42:37.382Z,77.25
2018-08-03T18:45:06.487Z,77.74
2018-08-03T18:47:34.973Z,77.87
2018-08-03T18:50:03.817Z,76.96
2018-08-03T18:52:32.288Z,77.46
2018-08-03T18:55:00.776Z,76.75
2018-08-03T18:57:29.266Z,77.54
2018-08-03T18:59:57.752Z,77.03
2018-08-03T19:02:26.205Z,77.37
2018-08-03T19:04:54.667Z,77.59
2018-08-03T19:07:23.133Z,78.18
2018-08-03T19:09:51.645Z,78.07
2018-08-03T19:12:20.107Z,77.82
2018-08-03T19:14:48.576Z,78.11
2018-08-03T19:17:17.059Z,78.25
2018-08-03T19:19:45.523Z,78.44
2018-08-03T19:22:14.579Z,78.52
2018-08-03T19:24:43.120Z,78.51
2018-08-03T19:27:11.593Z,78.93
2018-08-03T19:29:40.061Z,78.64
2018-08-03T19:32:08.542Z,78.47
2018-08-03T19:34:37.017Z,78.63
2018-08-03T19:37:05.821Z,78.46
2018-08-03T19:39:34.304Z,78.56
2018-08-03T19:42:02.793Z,78.87
2018-08-03T19:44:31.251Z,78.57
2018-08-03T19:46:59.725Z,78.72
2018-08-03T19:49:28.220Z,78.43
2018-08-03T19:51:56.704Z,78.52
2018-08-03T19:54:25.162Z,78.52
2018-08-03T19:56:53.638Z,78.25
2018-08-03T19:59:22.119Z,78.85
2018-08-03T20:01:50.600Z,78.61
2018-08-03T20:04:19.093Z,78.58
2018-08-03T20:06:47.600Z,78.72
2018-08-03T20:09:16.044Z,78.48
2018-08-03T20:11:44.508Z,78.43
2018-08-03T20:14:12.959Z,77.69
2018-08-03T20:16:41.431Z,79.07
2018-08-03T20:19:09.934Z,78.40
2018-08-03T20:21:38.405Z,78.50
2018-08-03T20:24:07.117Z,78.60
2018-08-03T20:26:35.583Z,79.30
2018-08-03T20:29:04.044Z,78.37
2018-08-03T20:31:32.508Z,78.54
2018-08-03T20:34:00.974Z,79.49
2018-08-03T20:36:29.473Z,79.67
2018-08-03T20:38:58.103Z,78.78
2018-08-03T20:41:26.577Z,79.01
2018-08-03T20:43:55.069Z,79.47
2018-08-03T20:46:23.727Z,79.49
2018-08-03T20:48:52.190Z,78.96
2018-08-03T20:51:20.697Z,79.13
2018-08-03T20:53:49.148Z,79.37
2018-08-03T20:56:17.627Z,78.88
2018-08-03T20:58:46.093Z,79.24
2018-08-03T21:01:14.608Z,79.18
2018-08-03T21:03:43.194Z,78.94
2018-08-03T21:06:11.688Z,79.03
2018-08-03T21:08:40.148Z,79.51
2018-08-03T21:11:08.629Z,79.58
2018-08-03T21:13:37.136Z,79.74
2018-08-03T21:16:05.635Z,79.17
2018-08-03T21:18:34.300Z,79.01
2018-08-03T21:21:03.389Z,79.05
2018-08-03T21:23:31.866Z,79.68
2018-08-03T21:26:00.339Z,79.15
2018-08-03T21:28:28.805Z,79.60
2018-08-03T21:30:57.252Z,78.91
2018-08-03T21:33:25.708Z,79.57
2018-08-03T21:35:54.172Z,79.00
2018-08-03T21:38:22.711Z,79.73
2018-08-03T21:40:51.225Z,79.48
2018-08-03T21:43:19.662Z,79.08
2018-08-03T21:45:48.100Z,79.47
2018-08-03T21:48:16.554Z,79.50
2018-08-03T21:50:45.015Z,79.78
2018-08-03T21:53:13.471Z,79.37
2018-08-03T21:55:41.956Z,79.30
2018-08-03T21:58:10.463Z,79.84
2018-08-03T22:00:38.913Z,79.82
2018-08-03T22:03:07.383Z,79.60
2018-08-03T22:05:35.827Z,79.37
2018-08-03T22:08:04.299Z,79.30
2018-08-03T22:10:32.792Z,79.15
2018-08-03T22:13:01.286Z,79.97
2018-08-03T22:15:29.744Z,79.22
2018-08-03T22:17:58.240Z,79.63
2018-08-03T22:20:26.703Z,79.99
2018-08-03T22:22:55.156Z,80.03
2018-08-03T22:25:23.612Z,80.02
2018-08-03T22:27:52.064Z,80.39
2018-08-03T22:30:20.516Z,80.00
2018-08-03T22:32:48.983Z,80.21
2018-08-03T22:35:17.446Z,80.04
2018-08-03T22:37:45.887Z,80.16
2018-08-03T22:40:14.387Z,79.92
2018-08-03T22:42:42.868Z,80.63
2018-08-03T22:45:11.352Z,80.22
2018-08-03T22:47:39.840Z,79.32
2018-08-03T22:50:08.317Z,79.29
2018-08-03T22:52:36.773Z,79.82
2018-08-03T22:55:05.344Z,79.86
2018-08-03T22:57:33.798Z,80.45
2018-08-03T23:00:02.380Z,80.16
2018-08-03T23:02:30.819Z,79.79
2018-08-03T23:04:59.967Z,79.70
2018-08-03T23:07:28.411Z,80.66
2018-08-03T23:09:56.883Z,80.20
2018-08-03T23:12:25.333Z,79.90
2018-08-03T23:14:53.788Z,80.07
2018-08-03T23:17:22.260Z,79.32
2018-08-03T23:19:50.732Z,79.93
2018-08-03T23:22:19.192Z,80.26
2018-08-03T23:24:47.643Z,79.91
2018-08-03T23:27:16.113Z,80.38
2018-08-03T23:29:44.555Z,80.36
2018-08-03T23:32:13.019Z,79.58
2018-08-03T23:34:41.501Z,79.60
2018-08-03T23:37:09.981Z,80.03
2018-08-03T23:39:38.453Z,79.57
2018-08-03T23:42:07.822Z,79.61
2018-08-03T23:44:36.504Z,79.44
2018-08-03T23:47:05.151Z,79.58
2018-08-03T23:49:33.587Z,79.84
2018-08-03T23:52:02.043Z,79.73
2018-08-03T23:54:30.496Z,80.32
2018-08-03T23:56:58.943Z,79.62
2018-08-03T23:59:27.391Z,80.39
